KEDC

Austin Executive Airport

Austin, Texas, USA
METAR KEDC 202355Z AUTO 36004KT 10SM FEW045 31/20 A2993 RMK AO2
Observed Flight Rules
Aug-20 @ 23:55 UTC (13 minutes ago) Visual Flight Rules
Wind Visibility Clouds
360° at 4 knots 10 miles
  • Few at 4,500' AGL
Temperatures Readings
Current 31°C / 88°F
Dewpoint 20°C / 68°F
Humidity 52%
Altimeter 29.93" Hg
Pressure 1014 hPa
Elevation 189
METAR KEDC 202355Z AUTO 36004KT 10SM FEW045 31/20 A2993 RMK AO2
Observed Flight Rules
Aug-20 @ 23:55 UTC
(13 minutes ago)
VFR
Wind Visibility
360° at 4 knots 10 miles
Clouds
  • Few at 4,500' AGL
Temperature Dewpoint
31°C / 88°F 20°C / 68°F
Humidity Altimeter Pressure
52% 29.93" Hg 1014 hPa